Time;durP1;ratioP1;P1;durP2;ratioP2;P2;SDS_P1;SDS_P2;PMS_P1;PMS_P2;Temp;Humidity;BMP_temperature;BMP_pressure;BME280_temperature;BME280_humidity;BME280_pressure;Samples;Min_cycle;Max_cycle;Signal;HPM_P1;HPM_P2
2024/02/02 00:00:48;;;;;;;1.90;0.10;;;;;;;-0.72;62.31;100864.06;5064002;28;20133;-75
2024/02/02 00:03:15;;;;;;;0.47;0.40;;;;;;;-0.78;61.76;100870.78;5063895;28;20458;-75
2024/02/02 00:05:43;;;;;;;0.57;0.10;;;;;;;-0.75;61.58;100877.69;5061653;28;20064;-75
2024/02/02 00:08:10;;;;;;;1.55;0.00;;;;;;;-0.77;61.87;100876.81;5063953;28;20052;-76
2024/02/02 00:10:37;;;;;;;0.60;0.10;;;;;;;-0.78;61.87;100878.47;5059031;28;20068;-75
2024/02/02 00:13:06;;;;;;;0.93;0.00;;;;;;;-0.79;61.53;100876.75;5062759;28;20098;-76
2024/02/02 00:15:33;;;;;;;1.20;0.05;;;;;;;-0.80;61.55;100880.16;5062136;28;20495;-76
2024/02/02 00:18:00;;;;;;;2.10;0.00;;;;;;;-0.81;61.40;100877.53;5064767;28;20098;-75
2024/02/02 00:20:27;;;;;;;2.00;0.77;;;;;;;-0.83;61.65;100882.66;5064621;28;20479;-76
2024/02/02 00:22:54;;;;;;;3.55;0.10;;;;;;;-0.81;61.64;100886.13;5063520;28;20049;-75
2024/02/02 00:25:21;;;;;;;0.28;0.10;;;;;;;-0.81;61.93;100887.81;5061269;28;20153;-75
2024/02/02 00:27:48;;;;;;;1.75;0.10;;;;;;;-0.81;62.15;100886.13;5062126;28;20525;-75
2024/02/02 00:30:17;;;;;;;0.28;0.08;;;;;;;-0.82;62.28;100883.53;5062106;28;20048;-75
2024/02/02 00:32:45;;;;;;;1.08;0.00;;;;;;;-0.84;61.94;100883.47;5063140;28;20049;-75
2024/02/02 00:35:13;;;;;;;2.63;0.10;;;;;;;-0.83;62.15;100872.38;5060359;28;20048;-74
2024/02/02 00:37:40;;;;;;;2.85;0.00;;;;;;;-0.84;62.17;100860.34;5064890;28;20125;-74
2024/02/02 00:40:08;;;;;;;1.00;0.10;;;;;;;-0.85;61.80;100868.03;5060486;28;20080;-75
2024/02/02 00:42:36;;;;;;;0.30;0.10;;;;;;;-0.85;62.31;100868.91;5061516;28;20040;-75
2024/02/02 00:45:03;;;;;;;0.65;0.10;;;;;;;-0.86;62.36;100867.16;5060501;28;21617;-76
2024/02/02 00:47:31;;;;;;;0.50;0.28;;;;;;;-0.85;62.23;100870.59;5060580;28;20075;-75
2024/02/02 00:49:59;;;;;;;0.50;0.15;;;;;;;-0.86;62.74;100877.44;5059874;28;20092;-77
2024/02/02 00:52:26;;;;;;;0.30;0.03;;;;;;;-0.85;62.51;100868.03;5064235;28;20479;-75
2024/02/02 00:54:53;;;;;;;0.98;0.22;;;;;;;-0.86;61.76;100872.31;5060451;28;20138;-76
2024/02/02 00:57:19;;;;;;;5.97;0.10;;;;;;;-0.86;62.21;100872.31;5063983;28;20075;-75
2024/02/02 00:59:47;;;;;;;0.70;0.10;;;;;;;-0.87;61.80;100873.13;5060951;28;20103;-72
2024/02/02 01:02:14;;;;;;;2.92;0.10;;;;;;;-0.88;61.50;100884.22;5062023;28;20127;-73
2024/02/02 01:04:43;;;;;;;1.88;0.00;;;;;;;-0.86;62.40;100882.59;5061910;28;20080;-72
2024/02/02 01:07:10;;;;;;;1.40;0.50;;;;;;;-0.87;62.34;100888.53;5061228;28;20069;-72
2024/02/02 01:09:38;;;;;;;0.45;0.00;;;;;;;-0.85;61.83;100893.72;5060717;28;20098;-74
2024/02/02 01:12:05;;;;;;;1.85;0.10;;;;;;;-0.85;62.40;100894.59;5060546;28;20097;-73
2024/02/02 01:14:32;;;;;;;0.55;0.10;;;;;;;-0.89;62.54;100879.91;5060525;28;20193;-74
2024/02/02 01:16:59;;;;;;;0.10;0.08;;;;;;;-0.84;62.47;100900.59;5064671;28;20080;-73
2024/02/02 01:19:26;;;;;;;0.45;0.03;;;;;;;-0.83;62.28;100910.03;5057993;28;20211;-73
2024/02/02 01:21:55;;;;;;;0.77;0.08;;;;;;;-0.83;62.51;100910.91;5059225;28;20529;-73
2024/02/02 01:24:22;;;;;;;0.20;0.08;;;;;;;-0.83;62.17;100900.63;5059226;28;20044;-73
2024/02/02 01:26:49;;;;;;;2.85;0.00;;;;;;;-0.82;62.30;100909.22;5063428;28;20056;-73
2024/02/02 01:29:16;;;;;;;0.93;0.00;;;;;;;-0.81;62.39;100914.38;5061395;28;20045;-73
2024/02/02 01:31:43;;;;;;;1.10;0.20;;;;;;;-0.80;62.78;100918.69;5060185;28;20133;-73
2024/02/02 01:34:10;;;;;;;1.23;0.10;;;;;;;-0.82;62.58;100915.22;5060836;28;20057;-73
2024/02/02 01:36:38;;;;;;;1.23;0.10;;;;;;;-0.80;62.74;100918.69;5062150;28;20137;-74
2024/02/02 01:39:10;;;;;;;0.77;0.10;;;;;;;-0.79;62.39;100924.69;5059628;28;20048;-74
2024/02/02 01:41:38;;;;;;;1.35;0.10;;;;;;;-0.79;62.64;100923.00;5060457;28;20479;-73
2024/02/02 01:44:06;;;;;;;1.88;0.10;;;;;;;-0.78;62.63;100922.16;5063073;28;20053;-74
2024/02/02 01:46:33;;;;;;;1.08;0.00;;;;;;;-0.78;62.88;100923.84;5056340;28;20056;-74
2024/02/02 01:49:01;;;;;;;0.10;0.00;;;;;;;-0.79;61.89;100928.13;5060777;28;20088;-73
2024/02/02 01:51:28;;;;;;;0.20;0.20;;;;;;;-0.79;62.24;100933.28;5061643;28;20067;-73
2024/02/02 01:53:55;;;;;;;1.05;0.05;;;;;;;-0.78;62.59;100921.28;5061948;28;20049;-73
2024/02/02 01:56:24;;;;;;;0.50;0.10;;;;;;;-0.78;62.15;100921.28;5061687;28;20088;-74
2024/02/02 01:58:51;;;;;;;2.67;0.40;;;;;;;-0.78;62.16;100913.59;5059845;28;20080;-74
2024/02/02 02:01:18;;;;;;;1.88;0.10;;;;;;;-0.80;62.72;100928.97;5060813;28;20453;-73
2024/02/02 02:03:46;;;;;;;0.70;0.10;;;;;;;-0.80;62.48;100928.13;5058599;28;20064;-73
2024/02/02 02:06:13;;;;;;;0.60;0.00;;;;;;;-0.82;62.80;100928.06;5062567;28;20048;-74
2024/02/02 02:08:40;;;;;;;0.52;0.00;;;;;;;-0.81;62.62;100926.34;5058151;28;20068;-73
2024/02/02 02:11:08;;;;;;;5.90;0.10;;;;;;;-0.83;62.80;100923.75;5062682;28;20106;-76
2024/02/02 02:13:37;;;;;;;0.52;0.10;;;;;;;-0.83;61.83;100933.13;5065979;28;20072;-77
2024/02/02 02:16:04;;;;;;;0.70;0.10;;;;;;;-0.84;62.03;100932.28;5062619;28;20040;-79
2024/02/02 02:18:31;;;;;;;0.00;0.00;;;;;;;-0.85;62.19;100930.53;5065861;28;20040;-76
2024/02/02 02:20:58;;;;;;;3.20;0.15;;;;;;;-0.85;62.06;100933.13;5063378;28;20072;-76
2024/02/02 02:23:27;;;;;;;0.55;0.10;;;;;;;-0.85;61.96;100932.25;5062434;28;20107;-76
2024/02/02 02:25:54;;;;;;;1.75;0.10;;;;;;;-0.85;61.64;100932.25;5059559;28;20138;-76
2024/02/02 02:28:21;;;;;;;0.40;0.00;;;;;;;-0.86;62.15;100931.38;5061256;28;20573;-74
2024/02/02 02:30:48;;;;;;;0.93;0.03;;;;;;;-0.86;61.91;100933.97;5063495;28;20080;-76
2024/02/02 02:33:15;;;;;;;0.90;0.30;;;;;;;-0.88;62.66;100930.47;5060243;28;20439;-76
2024/02/02 02:35:42;;;;;;;0.10;0.00;;;;;;;-0.88;62.48;100927.03;5064548;28;20090;-75
2024/02/02 02:38:09;;;;;;;4.57;0.10;;;;;;;-0.90;62.01;100918.41;5066905;28;20453;-76
2024/02/02 02:40:38;;;;;;;5.68;0.50;;;;;;;-0.91;62.15;100917.56;5064820;28;20079;-76
2024/02/02 02:43:05;;;;;;;2.80;0.08;;;;;;;-0.92;62.12;100915.78;5066884;28;20172;-79
2024/02/02 02:45:32;;;;;;;1.45;0.10;;;;;;;-0.93;62.60;100914.06;5064594;28;20101;-84
2024/02/02 02:48:00;;;;;;;4.30;0.10;;;;;;;-0.95;62.17;100918.28;5064598;28;22022;-75
2024/02/02 02:50:27;;;;;;;0.20;0.08;;;;;;;-0.94;61.88;100925.16;5065032;28;20064;-75
2024/02/02 02:52:54;;;;;;;1.30;0.10;;;;;;;-0.95;62.41;100918.28;5062002;28;20051;-76
2024/02/02 02:55:21;;;;;;;1.90;0.08;;;;;;;-0.95;62.42;100918.28;5063362;28;20045;-75
2024/02/02 02:57:52;;;;;;;0.35;0.10;;;;;;;-0.96;61.91;100925.97;5063541;28;20121;-76
2024/02/02 03:00:20;;;;;;;1.20;0.10;;;;;;;-0.97;62.87;100930.22;5065491;28;20048;-76
2024/02/02 03:02:47;;;;;;;2.97;0.20;;;;;;;-0.97;61.56;100925.09;5057381;28;20178;-76
2024/02/02 03:05:14;;;;;;;0.55;0.00;;;;;;;-0.97;62.31;100926.75;5063424;28;20548;-75
2024/02/02 03:07:41;;;;;;;2.33;0.08;;;;;;;-0.98;61.92;100927.59;5060082;28;20072;-75
2024/02/02 03:10:08;;;;;;;2.78;0.10;;;;;;;-1.04;61.73;100908.63;5059094;28;20130;-75
2024/02/02 03:12:35;;;;;;;6.90;0.10;;;;;;;-1.03;62.40;100919.75;5065964;28;20487;-76
2024/02/02 03:15:04;;;;;;;5.97;0.10;;;;;;;-0.99;62.02;100926.75;5064297;28;20072;-75
2024/02/02 03:17:31;;;;;;;4.43;0.15;;;;;;;-0.99;61.78;100931.00;5064639;28;20079;-76
2024/02/02 03:19:58;;;;;;;3.05;0.20;;;;;;;-1.00;62.27;100927.59;5065498;28;20072;-72
2024/02/02 03:22:26;;;;;;;0.93;0.10;;;;;;;-1.00;61.98;100930.16;5063600;28;20109;-72
2024/02/02 03:24:53;;;;;;;3.35;0.70;;;;;;;-1.02;61.79;100919.81;5061717;28;20525;-72
2024/02/02 03:27:21;;;;;;;3.03;0.10;;;;;;;-1.01;62.23;100912.97;5063283;28;20133;-73
2024/02/02 03:29:48;;;;;;;3.03;0.20;;;;;;;-1.02;61.77;100914.69;5065525;28;20558;-74
2024/02/02 03:32:16;;;;;;;3.40;0.30;;;;;;;-1.01;62.31;100910.41;5063650;28;20040;-73
2024/02/02 03:34:43;;;;;;;3.70;0.10;;;;;;;-1.01;61.77;100912.97;5061209;28;20090;-73
2024/02/02 03:37:11;;;;;;;1.48;0.17;;;;;;;-1.02;62.37;100918.97;5065209;28;20219;-74
2024/02/02 03:39:38;;;;;;;3.42;0.10;;;;;;;-1.03;62.50;100910.41;5059688;28;20390;-74
2024/02/02 03:42:05;;;;;;;4.28;0.10;;;;;;;-1.02;62.12;100921.53;5062129;28;20134;-74
2024/02/02 03:44:31;;;;;;;4.22;0.10;;;;;;;-1.04;62.49;100916.34;5063366;28;20553;-74
2024/02/02 03:46:58;;;;;;;2.05;0.10;;;;;;;-1.06;62.25;100914.56;5065731;28;20448;-73
2024/02/02 03:49:27;;;;;;;4.43;0.10;;;;;;;-1.04;62.52;100928.31;5065241;28;20061;-73
2024/02/02 03:51:54;;;;;;;2.22;0.13;;;;;;;-1.06;62.15;100927.38;5064274;28;20048;-74
2024/02/02 03:54:21;;;;;;;3.90;1.75;;;;;;;-1.05;62.23;100922.31;5063480;28;20052;-74
2024/02/02 03:56:48;;;;;;;2.85;0.10;;;;;;;-1.06;62.56;100923.16;5062907;28;20896;-74
2024/02/02 03:59:15;;;;;;;0.60;0.08;;;;;;;-1.05;61.61;100916.31;5059073;28;20080;-74
2024/02/02 04:01:42;;;;;;;0.60;0.10;;;;;;;-1.06;62.15;100917.13;5063511;28;20080;-73
2024/02/02 04:04:09;;;;;;;1.95;0.15;;;;;;;-1.06;61.98;100920.59;5063807;28;20048;-74
2024/02/02 04:06:38;;;;;;;2.85;0.17;;;;;;;-1.07;62.12;100913.69;5063382;28;20392;-73
2024/02/02 04:09:05;;;;;;;0.60;0.10;;;;;;;-1.06;61.71;100917.13;5064366;28;20055;-78
2024/02/02 04:11:32;;;;;;;1.80;0.10;;;;;;;-1.06;62.19;100914.56;5062381;28;20105;-76
2024/02/02 04:13:59;;;;;;;2.20;0.20;;;;;;;-1.06;62.78;100927.38;5065101;28;20122;-73
2024/02/02 04:16:26;;;;;;;0.50;0.30;;;;;;;-1.07;62.18;100934.22;5062043;28;20515;-74
2024/02/02 04:18:53;;;;;;;2.83;0.30;;;;;;;-1.07;62.73;100926.53;5063505;28;20048;-73
2024/02/02 04:21:20;;;;;;;2.58;0.10;;;;;;;-1.07;61.97;100928.22;5062422;28;20063;-74
2024/02/02 04:23:48;;;;;;;5.82;0.10;;;;;;;-1.08;62.47;100932.50;5065783;28;20443;-73
2024/02/02 04:26:15;;;;;;;1.48;0.15;;;;;;;-1.08;62.15;100936.78;5060517;28;20072;-73
2024/02/02 04:28:42;;;;;;;4.22;0.38;;;;;;;-1.11;61.86;100935.00;5064451;28;20506;-73
2024/02/02 04:31:09;;;;;;;2.38;0.20;;;;;;;-1.07;61.89;100938.50;5062580;28;20056;-75
2024/02/02 04:33:37;;;;;;;1.85;0.17;;;;;;;-1.08;62.63;100942.78;5064276;28;20053;-75
2024/02/02 04:36:04;;;;;;;4.28;0.20;;;;;;;-1.08;62.13;100947.91;5062889;28;20071;-78
2024/02/02 04:38:31;;;;;;;1.13;0.38;;;;;;;-1.08;62.79;100944.47;5065133;28;20064;-75
2024/02/02 04:41:00;;;;;;;1.38;0.10;;;;;;;-1.06;62.02;100950.50;5069496;28;20040;-84
2024/02/02 04:43:27;;;;;;;3.55;0.20;;;;;;;-1.07;62.08;100948.78;5071004;28;20056;-84
2024/02/02 04:45:54;;;;;;;6.55;0.40;;;;;;;-1.07;62.91;100949.63;5069173;28;20056;-84
2024/02/02 04:48:20;;;;;;;2.17;0.13;;;;;;;-1.09;61.98;100950.41;5068594;28;20483;-84
2024/02/02 04:50:47;;;;;;;4.07;0.15;;;;;;;-1.08;62.30;100957.31;5069715;28;20109;-84
2024/02/02 04:53:14;;;;;;;1.75;0.20;;;;;;;-1.08;62.29;100954.75;5067525;28;20086;-83
2024/02/02 04:55:41;;;;;;;2.15;0.10;;;;;;;-1.07;62.16;100956.47;5070415;28;20048;-84
2024/02/02 04:58:10;;;;;;;3.63;0.13;;;;;;;-1.07;62.41;100959.03;5065422;28;20041;-84
2024/02/02 05:00:37;;;;;;;6.43;0.55;;;;;;;-1.08;62.44;100955.63;5067735;28;20040;-84
2024/02/02 05:03:04;;;;;;;1.98;0.20;;;;;;;-1.08;62.51;100962.44;5068034;28;20544;-81
2024/02/02 05:05:32;;;;;;;6.60;0.20;;;;;;;-1.10;62.32;100948.69;5069856;28;20086;-84
2024/02/02 05:07:59;;;;;;;5.65;0.30;;;;;;;-1.22;62.06;100928.69;5066844;28;20048;-83
2024/02/02 05:10:26;;;;;;;1.77;0.10;;;;;;;-1.09;62.10;100955.56;5068957;28;20056;-84
2024/02/02 05:12:53;;;;;;;1.38;0.10;;;;;;;-1.09;62.19;100960.69;5068494;28;20072;-84
2024/02/02 05:15:22;;;;;;;2.35;0.20;;;;;;;-1.09;61.78;100966.69;5068463;28;21335;-85
2024/02/02 05:17:49;;;;;;;1.55;0.40;;;;;;;-1.11;62.39;100958.09;5066633;28;20129;-84
2024/02/02 05:20:16;;;;;;;6.28;0.20;;;;;;;-1.09;62.27;100959.00;5068235;28;20126;-84
2024/02/02 05:22:43;;;;;;;2.08;0.10;;;;;;;-1.09;62.27;100960.69;5068475;28;20496;-83
2024/02/02 05:25:11;;;;;;;4.38;0.20;;;;;;;-1.10;62.74;100964.09;5068369;28;20098;-84
2024/02/02 05:27:38;;;;;;;4.85;0.10;;;;;;;-1.10;62.98;100974.38;5067060;28;20077;-84
2024/02/02 05:30:07;;;;;;;1.42;0.20;;;;;;;-1.10;62.23;100982.94;5069031;28;20102;-83
2024/02/02 05:32:35;;;;;;;4.32;0.28;;;;;;;-1.11;62.32;100975.22;5068504;28;20045;-84
2024/02/02 05:35:03;;;;;;;6.13;0.30;;;;;;;-1.12;61.86;100973.44;5069069;28;20260;-83
2024/02/02 05:37:30;;;;;;;1.63;0.20;;;;;;;-1.11;62.32;100972.63;5068631;28;20071;-82
2024/02/02 05:39:57;;;;;;;7.38;0.30;;;;;;;-1.13;62.58;100970.00;5067250;28;20060;-76
2024/02/02 05:42:24;;;;;;;7.38;0.65;;;;;;;-1.12;62.56;100963.19;5062503;28;20076;-77
2024/02/02 05:44:51;;;;;;;4.50;0.10;;;;;;;-1.12;62.21;100965.75;5063764;28;20045;-76
2024/02/02 05:47:18;;;;;;;2.67;0.20;;;;;;;-1.12;62.58;100961.47;5061829;28;20044;-75
2024/02/02 05:49:46;;;;;;;2.72;0.10;;;;;;;-1.13;62.23;100958.88;5064367;28;20132;-73
2024/02/02 05:52:13;;;;;;;6.95;0.40;;;;;;;-1.16;62.30;100958.78;5057081;28;20072;-73
2024/02/02 05:54:40;;;;;;;2.70;0.20;;;;;;;-1.15;62.11;100963.09;5062419;28;20141;-73
2024/02/02 05:57:07;;;;;;;7.63;0.20;;;;;;;-1.13;62.76;100974.28;5058496;28;20053;-72
2024/02/02 05:59:34;;;;;;;7.53;0.20;;;;;;;-1.17;62.14;100962.16;5061684;28;20516;-73
2024/02/02 06:02:02;;;;;;;6.78;1.00;;;;;;;-1.16;62.75;100964.78;5061800;28;20117;-72
2024/02/02 06:04:29;;;;;;;1.52;0.20;;;;;;;-1.14;62.60;100968.28;5061893;28;20115;-73
2024/02/02 06:06:57;;;;;;;0.30;0.10;;;;;;;-1.15;62.33;100968.22;5063622;28;20072;-73
2024/02/02 06:09:24;;;;;;;7.13;0.20;;;;;;;-1.15;62.81;100975.94;5056200;28;21361;-73
2024/02/02 06:11:51;;;;;;;2.25;0.20;;;;;;;-1.15;62.69;100970.78;5061242;28;20131;-73
2024/02/02 06:14:18;;;;;;;1.25;0.10;;;;;;;-1.15;62.01;100971.66;5059288;28;20496;-74
2024/02/02 06:16:47;;;;;;;1.60;0.38;;;;;;;-1.14;61.85;100973.41;5062124;28;20044;-73
2024/02/02 06:19:14;;;;;;;4.50;0.20;;;;;;;-1.15;62.26;100970.78;5059575;28;20052;-74
2024/02/02 06:21:41;;;;;;;4.03;0.20;;;;;;;-1.18;62.79;100979.28;5063472;28;20045;-73
2024/02/02 06:24:09;;;;;;;3.10;0.20;;;;;;;-1.16;62.31;100981.91;5059216;28;20502;-74
2024/02/02 06:26:36;;;;;;;3.42;0.43;;;;;;;-1.15;62.15;100987.06;5062523;28;20053;-73
2024/02/02 06:29:03;;;;;;;12.82;0.55;;;;;;;-1.16;62.49;100984.47;5060744;28;20048;-73
2024/02/02 06:31:30;;;;;;;4.32;0.20;;;;;;;-1.18;62.67;100981.84;5060878;28;20442;-73
2024/02/02 06:33:57;;;;;;;4.60;0.20;;;;;;;-1.17;62.48;100982.72;5056583;28;20044;-73
2024/02/02 06:36:26;;;;;;;4.65;0.20;;;;;;;-1.16;62.86;100992.16;5060475;28;20490;-73
2024/02/02 06:38:56;;;;;;;15.85;0.68;;;;;;;-1.19;62.36;100984.38;5041760;28;20650;-74
2024/02/02 06:41:24;;;;;;;3.13;1.02;;;;;;;-1.18;62.46;100980.97;5061206;28;20059;-72
2024/02/02 06:43:51;;;;;;;4.85;0.20;;;;;;;-1.18;62.91;100975.84;5062301;28;20134;-73
2024/02/02 06:46:18;;;;;;;2.22;0.17;;;;;;;-1.16;62.47;100989.59;5060031;28;20049;-70
2024/02/02 06:48:45;;;;;;;7.90;0.80;;;;;;;-1.19;62.33;100981.81;5060513;28;20067;-70
2024/02/02 06:51:12;;;;;;;1.95;0.20;;;;;;;-1.16;62.77;100979.34;5060977;28;20079;-71
2024/02/02 06:53:39;;;;;;;3.58;0.20;;;;;;;-1.18;62.24;100976.72;5060314;28;20044;-71
2024/02/02 06:56:27;;;;;;;4.30;0.13;;;;;;;-1.17;62.36;100982.72;5062587;28;20080;-74
2024/02/02 06:58:56;;;;;;;6.05;0.30;;;;;;;-1.19;62.83;100968.97;5061111;28;21479;-69
2024/02/02 07:01:23;;;;;;;5.00;0.20;;;;;;;-1.19;63.23;100980.13;5059757;28;20084;-76
2024/02/02 07:03:51;;;;;;;5.05;0.28;;;;;;;-1.19;62.77;100984.38;5053348;28;20053;-75
2024/02/02 07:06:18;;;;;;;6.78;0.20;;;;;;;-1.19;62.73;100974.13;5059645;28;20433;-74
2024/02/02 07:08:45;;;;;;;4.15;0.30;;;;;;;-1.23;62.29;100968.91;5062564;28;20048;-75
2024/02/02 07:11:51;;;;;;;5.07;0.20;;;;;;;-1.21;62.82;100966.34;5059199;28;20049;-74
2024/02/02 07:14:45;;;;;;;2.90;0.10;;;;;;;-1.23;62.76;100963.75;5060412;28;20071;-74
2024/02/02 07:17:31;;;;;;;3.95;0.68;;;;;;;-1.24;63.08;100964.56;5055669;28;21205;-74
2024/02/02 07:19:58;;;;;;;7.03;0.20;;;;;;;-1.23;63.07;100968.91;5059865;28;20045;-73
2024/02/02 07:22:33;;;;;;;5.47;0.30;;;;;;;-1.23;63.33;100971.47;5061444;28;21080;-74
2024/02/02 07:25:00;;;;;;;;;;;;;;;-1.22;63.24;100969.75;5065733;28;20478;-74
2024/02/02 07:27:58;;;;;;;3.30;0.25;;;;;;;-1.21;62.94;100970.63;5062158;28;19967;-75
2024/02/02 07:30:51;;;;;;;2.20;0.40;;;;;;;-1.23;63.09;100974.03;5061024;28;20133;-75
2024/02/02 07:33:34;;;;;;;2.10;0.17;;;;;;;-1.24;63.29;100972.28;5060396;28;20140;-74
2024/02/02 07:36:01;;;;;;;7.03;0.20;;;;;;;-1.28;63.26;100965.31;5066312;28;20086;-72
2024/02/02 07:38:45;;;;;;;6.47;0.22;;;;;;;-1.24;63.08;100962.00;5064868;28;20044;-71
2024/02/02 07:41:13;;;;;;;3.33;0.20;;;;;;;-1.25;63.16;100962.84;5062669;28;20040;-75
2024/02/02 07:43:41;;;;;;;6.82;0.20;;;;;;;-1.23;63.71;100957.72;5066474;28;20444;-73
2024/02/02 07:46:10;;;;;;;1.30;0.20;;;;;;;-1.21;63.76;100952.66;5059733;28;21405;-72
2024/02/02 07:48:37;;;;;;;8.88;0.77;;;;;;;-1.23;62.73;100961.19;5063201;28;20698;-71
2024/02/02 07:51:06;;;;;;;3.03;0.30;;;;;;;-1.21;62.96;100961.22;5063956;28;20053;-74
2024/02/02 07:53:33;;;;;;;6.63;0.30;;;;;;;-1.20;63.42;100962.09;5065596;28;20059;-74
2024/02/02 07:56:00;;;;;;;4.25;0.20;;;;;;;-1.23;63.57;100955.16;5064572;28;20050;-74
2024/02/02 07:58:27;;;;;;;2.58;0.20;;;;;;;-1.19;63.61;100951.00;5064272;28;20045;-74
2024/02/02 08:00:55;;;;;;;2.38;0.20;;;;;;;-1.19;63.15;100951.88;5066273;28;20056;-72
2024/02/02 08:03:23;;;;;;;1.27;0.20;;;;;;;-1.20;63.46;100946.69;5062277;28;21397;-74
2024/02/02 08:05:50;;;;;;;3.47;0.20;;;;;;;-1.18;63.97;100953.59;5064829;28;20052;-72
2024/02/02 08:08:17;;;;;;;5.10;0.20;;;;;;;-1.15;62.89;100945.13;5064000;28;20443;-72
2024/02/02 08:10:44;;;;;;;9.07;0.45;;;;;;;-1.13;63.78;100948.59;5065198;28;20098;-72
2024/02/02 08:13:12;;;;;;;10.57;0.40;;;;;;;-1.13;63.73;100954.59;5061276;28;20064;-73
2024/02/02 08:15:39;;;;;;;5.32;0.28;;;;;;;-1.09;62.88;100960.69;5061846;28;20044;-72
2024/02/02 08:18:07;;;;;;;3.67;0.20;;;;;;;-1.08;63.65;100952.19;5064284;28;20193;-71
2024/02/02 08:20:36;;;;;;;6.28;0.20;;;;;;;-1.06;63.63;100937.66;5062179;28;20122;-70
2024/02/02 08:23:03;;;;;;;5.70;0.30;;;;;;;-1.06;62.95;100935.09;5062677;28;20044;-70
2024/02/02 08:25:30;;;;;;;3.22;0.15;;;;;;;-1.06;63.94;100932.53;5064719;28;20052;-71
2024/02/02 08:27:57;;;;;;;9.32;0.40;;;;;;;-1.03;63.72;100930.03;5059688;28;20095;-70
2024/02/02 08:30:24;;;;;;;3.17;0.30;;;;;;;-1.02;63.66;100927.53;5062572;28;20149;-73
2024/02/02 08:32:52;;;;;;;1.95;0.25;;;;;;;-1.01;63.78;100918.97;5062626;28;20106;-72
2024/02/02 08:35:21;;;;;;;7.03;0.20;;;;;;;-0.99;63.55;100921.59;5060421;28;20040;-72
2024/02/02 08:37:51;;;;;;;4.03;0.38;;;;;;;-0.96;63.37;100916.56;5064068;28;20036;-72
2024/02/02 08:40:35;;;;;;;4.35;0.25;;;;;;;-0.94;63.73;100914.00;5062051;28;20068;-73
2024/02/02 08:43:02;;;;;;;8.50;1.08;;;;;;;-0.92;63.30;100912.34;5060455;28;20125;-72
2024/02/02 08:46:19;;;;;;;4.25;0.20;;;;;;;-0.89;63.92;100909.88;5063654;28;20063;-73
2024/02/02 08:48:48;;;;;;;5.97;0.20;;;;;;;-0.89;63.22;100903.03;5052171;28;20045;-73
2024/02/02 08:51:53;;;;;;;5.82;0.20;;;;;;;-0.86;63.86;100898.00;5063313;28;20098;-73
2024/02/02 08:54:33;;;;;;;3.50;0.20;;;;;;;-0.84;63.42;100890.31;5061089;28;20041;-74
2024/02/02 08:57:26;;;;;;;9.10;0.25;;;;;;;-0.82;63.62;100884.38;5061175;28;20533;-74
2024/02/02 08:59:53;;;;;;;1.85;0.20;;;;;;;-0.81;63.24;100870.69;5061530;28;20057;-74
2024/02/02 09:02:50;;;;;;;11.50;0.50;;;;;;;-0.78;63.71;100868.19;5061698;28;20498;-73
2024/02/02 09:05:20;;;;;;;5.07;0.28;;;;;;;-0.76;63.53;100863.13;5059391;28;20076;-72
2024/02/02 09:07:52;;;;;;;5.80;0.30;;;;;;;-0.76;63.68;100857.13;5063202;28;20133;-72
2024/02/02 09:10:58;;;;;;;4.00;0.30;;;;;;;-0.70;63.09;100857.25;5065468;28;20040;-81
2024/02/02 09:13:28;;;;;;;4.82;0.30;;;;;;;-0.69;63.30;100859.00;5042540;28;20087;-78
2024/02/02 09:15:55;;;;;;;3.92;0.30;;;;;;;-0.67;64.15;100857.34;5062515;28;21170;-77
2024/02/02 09:18:33;;;;;;;6.82;0.22;;;;;;;-0.64;63.19;100862.53;5066619;28;20052;-77
2024/02/02 09:21:01;;;;;;;9.88;1.38;;;;;;;-0.62;63.45;100856.63;5067768;28;20044;-80
2024/02/02 09:23:29;;;;;;;6.60;0.20;;;;;;;-0.60;63.84;100852.38;5068289;28;20504;-81
2024/02/02 09:25:56;;;;;;;5.97;0.82;;;;;;;-0.57;63.51;100854.16;5063969;28;20052;-79
2024/02/02 09:28:42;;;;;;;3.78;0.20;;;;;;;-0.55;63.46;100837.06;5066581;28;20056;-80
2024/02/02 09:31:15;;;;;;;3.60;0.20;;;;;;;-0.53;64.05;100835.41;5065638;28;20398;-78
2024/02/02 09:33:47;;;;;;;5.13;0.28;;;;;;;-0.50;63.98;100826.91;5067449;28;20111;-78
2024/02/02 09:36:15;;;;;;;8.52;0.32;;;;;;;-0.47;63.47;100822.69;5065742;28;20044;-80
2024/02/02 09:38:56;;;;;;;5.45;0.60;;;;;;;-0.46;63.54;100806.47;5068345;28;20503;-81
2024/02/02 09:41:48;;;;;;;8.20;0.20;;;;;;;-0.42;63.68;100809.97;5066499;28;20695;-80
2024/02/02 09:44:35;;;;;;;10.50;0.50;;;;;;;-0.39;63.70;100818.59;5066738;28;20551;-81
2024/02/02 09:47:18;;;;;;;7.00;0.40;;;;;;;-0.38;63.94;100812.63;5064696;28;20040;-74
2024/02/02 09:49:58;;;;;;;4.07;0.20;;;;;;;-0.35;63.43;100812.72;5063042;28;20091;-74
2024/02/02 09:52:36;;;;;;;3.55;0.20;;;;;;;-0.31;63.39;100815.34;5063938;28;21216;-76
2024/02/02 09:55:12;;;;;;;5.70;0.25;;;;;;;-0.30;63.99;100812.78;5059990;28;20773;-79
2024/02/02 09:57:47;;;;;;;11.20;0.30;;;;;;;-0.27;63.53;100817.13;5066090;28;20422;-76
2024/02/02 10:00:26;;;;;;;5.97;0.30;;;;;;;-0.23;63.40;100808.66;5060604;28;20110;-73
2024/02/02 10:03:07;;;;;;;4.88;0.93;;;;;;;-0.21;63.48;100806.97;5061708;28;20057;-74
2024/02/02 10:05:49;;;;;;;4.78;0.30;;;;;;;-0.19;64.05;100808.75;5061613;28;20045;-76
2024/02/02 10:08:52;;;;;;;6.65;0.38;;;;;;;-0.16;64.05;100795.09;5064524;28;20104;-76
2024/02/02 10:11:49;;;;;;;5.90;0.30;;;;;;;-0.13;63.64;100796.03;5063809;28;20124;-78
2024/02/02 10:14:34;;;;;;;7.65;0.65;;;;;;;-0.12;63.71;100782.34;5053568;28;20052;-74
2024/02/02 10:17:10;;;;;;;7.65;0.35;;;;;;;-0.09;63.11;100786.66;5061209;28;20064;-78
2024/02/02 10:20:06;;;;;;;11.93;0.50;;;;;;;-0.06;63.81;100786.75;5062222;28;20097;-76
2024/02/02 10:22:57;;;;;;;4.07;0.52;;;;;;;-0.03;64.01;100781.69;5062884;28;20528;-77
2024/02/02 10:25:55;;;;;;;3.92;0.30;;;;;;;-0.00;64.00;100778.31;5060608;28;20055;-74
2024/02/02 10:28:34;;;;;;;7.55;0.55;;;;;;;0.01;63.79;100759.44;5058948;28;20056;-75
2024/02/02 10:31:14;;;;;;;8.25;0.30;;;;;;;0.03;63.63;100753.50;5062941;28;20513;-73
2024/02/02 10:33:58;;;;;;;2.28;0.30;;;;;;;0.06;63.36;100745.84;5058641;28;20195;-73
2024/02/02 10:36:39;;;;;;;9.20;0.63;;;;;;;0.09;63.63;100745.91;5061326;28;20588;-72
2024/02/02 10:39:19;;;;;;;1.65;0.22;;;;;;;0.12;64.05;100743.38;5059192;28;20130;-72
2024/02/02 10:42:07;;;;;;;14.07;0.60;;;;;;;0.15;63.94;100740.00;5059939;28;20132;-73
2024/02/02 10:44:46;;;;;;;6.35;0.47;;;;;;;0.18;63.39;100731.47;5061111;28;20388;-72
2024/02/02 10:47:27;;;;;;;13.63;0.60;;;;;;;0.20;64.24;100720.38;5061933;28;20048;-72
2024/02/02 10:50:08;;;;;;;8.38;0.30;;;;;;;0.23;63.79;100705.00;5060245;28;20076;-72
2024/02/02 10:52:47;;;;;;;8.50;0.82;;;;;;;0.26;63.69;100706.75;5059075;28;20052;-73
2024/02/02 10:55:31;;;;;;;11.50;0.93;;;;;;;0.29;63.85;100693.94;5062089;28;20049;-72
2024/02/02 10:58:06;;;;;;;2.80;0.30;;;;;;;0.32;63.90;100688.84;5066505;28;20037;-72
2024/02/02 11:00:42;;;;;;;5.55;0.40;;;;;;;0.34;63.86;100671.75;5062499;28;20129;-73
2024/02/02 11:03:22;;;;;;;5.22;0.30;;;;;;;0.36;63.59;100677.75;5064096;28;20129;-73
2024/02/02 11:06:01;;;;;;;10.50;1.17;;;;;;;0.40;63.52;100679.56;5064102;28;20048;-72
2024/02/02 11:08:32;;;;;;;17.10;1.77;;;;;;;0.42;63.74;100675.28;5065286;28;20045;-72
2024/02/02 11:11:04;;;;;;;4.13;0.30;;;;;;;0.44;63.77;100665.03;5064621;28;20048;-74
2024/02/02 11:13:42;;;;;;;10.13;1.05;;;;;;;0.47;63.65;100665.94;5066953;28;20055;-75
2024/02/02 11:16:27;;;;;;;10.65;0.55;;;;;;;0.50;64.22;100660.84;5066192;28;20047;-73
2024/02/02 11:19:17;;;;;;;7.05;0.30;;;;;;;0.52;64.24;100650.59;5064397;28;20726;-73
2024/02/02 11:22:06;;;;;;;9.52;0.30;;;;;;;0.54;63.60;100647.19;5064914;28;20048;-75
2024/02/02 11:24:42;;;;;;;29.30;1.73;;;;;;;0.57;64.08;100636.94;5065995;28;20049;-72
2024/02/02 11:27:17;;;;;;;7.53;0.52;;;;;;;0.56;64.60;100624.91;5063784;28;20547;-75
2024/02/02 11:29:55;;;;;;;5.35;0.57;;;;;;;0.62;63.77;100624.13;5066745;28;20041;-76
2024/02/02 11:32:40;;;;;;;9.50;1.02;;;;;;;0.65;64.19;100623.31;5065012;28;20059;-75
2024/02/02 11:35:14;;;;;;;9.35;1.00;;;;;;;0.66;64.36;100612.19;5048012;28;20041;-77
2024/02/02 11:37:55;;;;;;;5.35;0.32;;;;;;;0.70;64.50;100595.94;5065301;28;20128;-76
2024/02/02 11:40:24;;;;;;;6.18;0.45;;;;;;;0.71;64.48;100588.25;5063355;28;20161;-80
2024/02/02 11:42:55;;;;;;;12.10;0.68;;;;;;;0.76;64.62;100577.97;5068321;28;20126;-75
2024/02/02 11:45:24;;;;;;;8.57;0.68;;;;;;;0.72;65.16;100563.34;5063786;28;20408;-76